Terminal Aerodrome Forecast
Issued by NWS

Current Version | Previous Version | Text Only | Print | Product List | Glossary On
Versions: 1 2 3 4 5 6 7 8 9 10 11 12 13 14 15 16 17 18 19 20 21 22 23 24 25 26 27 28
000
FTUS44 KHGX 061457 AAC
TAFUTS
TAF AMD
KUTS 061457Z 0615/0712 18003KT P6SM SCT003
     FM061700 28005KT P6SM SKC
     FM062100 33005KT P6SM BKN015
     FM070400 34003KT P6SM SCT007 SCT025
     FM070800 35003KT 4SM BR OVC004=

USA.gov is the U.S. government's official web portal to all federal, state and local government web resources and services.